Time;durP1;ratioP1;P1;durP2;ratioP2;P2;SDS_P1;SDS_P2;PMS_P1;PMS_P2;Temp;Humidity;BMP_temperature;BMP_pressure;BME280_temperature;BME280_humidity;BME280_pressure;Samples;Min_cycle;Max_cycle;Signal;HPM_P1;HPM_P2
2022/02/21 00:00:24;;;;;;;8.33;5.50;;;;;;;;;;5054094;28;20288;-78
2022/02/21 00:02:53;;;;;;;6.27;5.17;;;;;;;;;;5054358;28;20280;-78
2022/02/21 00:05:21;;;;;;;8.10;5.37;;;;;;;;;;5053842;28;20236;-78
2022/02/21 00:07:50;;;;;;;8.50;5.83;;;;;;;;;;5054206;28;20292;-78
2022/02/21 00:10:18;;;;;;;6.00;5.40;;;;;;;;;;5053964;28;20244;-78
2022/02/21 00:12:46;;;;;;;6.30;5.67;;;;;;;;;;5054027;28;20563;-79
2022/02/21 00:15:17;;;;;;;7.80;5.67;;;;;;;;;;5053901;28;20224;-79
2022/02/21 00:17:45;;;;;;;9.77;5.97;;;;;;;;;;5054084;28;20312;-78
2022/02/21 00:20:13;;;;;;;8.23;5.87;;;;;;;;;;5054088;28;20202;-78
2022/02/21 00:22:40;;;;;;;11.50;6.77;;;;;;;;;;5053605;28;20587;-78
2022/02/21 00:25:09;;;;;;;11.27;8.13;;;;;;;;;;5053786;28;20293;-79
2022/02/21 00:27:36;;;;;;;7.80;6.40;;;;;;;;;;5054028;28;20280;-78
2022/02/21 00:30:05;;;;;;;6.90;6.10;;;;;;;;;;5053592;28;20229;-79
2022/02/21 00:32:32;;;;;;;10.07;7.60;;;;;;;;;;5053798;28;20300;-78
2022/02/21 00:35:00;;;;;;;11.10;6.80;;;;;;;;;;5053462;28;20208;-78
2022/02/21 00:37:27;;;;;;;9.57;6.73;;;;;;;;;;5053564;28;20198;-78
2022/02/21 00:39:54;;;;;;;7.50;5.93;;;;;;;;;;5053404;28;20296;-78
2022/02/21 00:42:24;;;;;;;6.47;5.13;;;;;;;;;;5053617;28;20305;-78
2022/02/21 00:44:56;;;;;;;7.67;6.07;;;;;;;;;;5053110;28;20238;-78
2022/02/21 00:47:24;;;;;;;7.43;5.37;;;;;;;;;;5053746;28;20186;-78
2022/02/21 00:49:51;;;;;;;7.20;5.57;;;;;;;;;;5052850;28;20212;-78
2022/02/21 00:52:19;;;;;;;8.70;6.40;;;;;;;;;;5053768;28;20596;-78
2022/02/21 00:54:46;;;;;;;7.30;5.43;;;;;;;;;;5053551;28;20208;-78
2022/02/21 00:57:13;;;;;;;9.83;5.73;;;;;;;;;;5053529;28;20225;-78
2022/02/21 00:59:43;;;;;;;10.27;5.60;;;;;;;;;;5052047;28;20255;-79
2022/02/21 01:02:11;;;;;;;7.03;6.40;;;;;;;;;;5053096;28;20205;-79
2022/02/21 01:04:38;;;;;;;10.47;6.53;;;;;;;;;;5052928;28;20285;-78
2022/02/21 01:07:06;;;;;;;8.73;6.07;;;;;;;;;;5053022;28;20234;-78
2022/02/21 01:09:33;;;;;;;7.87;5.43;;;;;;;;;;5052630;28;20248;-78
2022/02/21 01:12:00;;;;;;;8.30;5.90;;;;;;;;;;5052932;28;20197;-78
2022/02/21 01:14:27;;;;;;;7.23;5.73;;;;;;;;;;5052867;28;20198;-78
2022/02/21 01:16:56;;;;;;;7.90;6.10;;;;;;;;;;5053150;28;20257;-78
2022/02/21 01:19:23;;;;;;;6.60;5.90;;;;;;;;;;5052340;28;20765;-78
2022/02/21 01:21:50;;;;;;;8.57;5.17;;;;;;;;;;5052721;28;20332;-78
2022/02/21 01:24:18;;;;;;;7.80;6.20;;;;;;;;;;5052659;28;20289;-78
2022/02/21 01:26:45;;;;;;;8.07;7.23;;;;;;;;;;5052705;28;20236;-78
2022/02/21 01:29:12;;;;;;;11.37;6.50;;;;;;;;;;5052385;28;20584;-78
2022/02/21 01:31:39;;;;;;;6.70;5.90;;;;;;;;;;5052512;28;20202;-78
2022/02/21 01:34:08;;;;;;;6.90;5.87;;;;;;;;;;5052281;28;20244;-78
2022/02/21 01:36:35;;;;;;;10.30;5.87;;;;;;;;;;5052397;28;20607;-78
2022/02/21 01:39:03;;;;;;;7.47;5.70;;;;;;;;;;5052101;28;20229;-78
2022/02/21 01:41:30;;;;;;;7.97;6.50;;;;;;;;;;5052844;28;20206;-78
2022/02/21 01:44:05;;;;;;;9.60;5.83;;;;;;;;;;5051997;28;20714;-78
2022/02/21 01:46:32;;;;;;;7.73;6.10;;;;;;;;;;5052790;28;20288;-78
2022/02/21 01:48:59;;;;;;;7.50;5.97;;;;;;;;;;5051717;28;20198;-79
2022/02/21 01:51:28;;;;;;;8.53;6.40;;;;;;;;;;5052238;28;20198;-77
2022/02/21 01:53:56;;;;;;;9.97;6.70;;;;;;;;;;5051993;28;20194;-76
2022/02/21 01:56:23;;;;;;;10.30;6.03;;;;;;;;;;5052178;28;20233;-77
2022/02/21 01:58:51;;;;;;;9.67;6.13;;;;;;;;;;5052159;28;20293;-77
2022/02/21 02:01:18;;;;;;;7.47;6.00;;;;;;;;;;5052453;28;20280;-78
2022/02/21 02:03:46;;;;;;;9.40;6.70;;;;;;;;;;5052218;28;20255;-77
2022/02/21 02:06:14;;;;;;;12.63;10.13;;;;;;;;;;5051971;28;20728;-78
2022/02/21 02:08:42;;;;;;;10.60;7.77;;;;;;;;;;5051475;28;20255;-78
2022/02/21 02:11:10;;;;;;;7.80;7.00;;;;;;;;;;5052094;28;20296;-78
2022/02/21 02:13:37;;;;;;;8.70;6.63;;;;;;;;;;5051906;28;20237;-78
2022/02/21 02:16:05;;;;;;;7.83;5.93;;;;;;;;;;5051999;28;20725;-77
2022/02/21 02:18:32;;;;;;;7.77;6.37;;;;;;;;;;5051720;28;20198;-78
2022/02/21 02:20:59;;;;;;;8.13;5.97;;;;;;;;;;5051875;28;20229;-78
2022/02/21 02:23:28;;;;;;;8.37;6.40;;;;;;;;;;5052013;28;20634;-78
2022/02/21 02:25:55;;;;;;;12.63;9.10;;;;;;;;;;5051815;28;20193;-78
2022/02/21 02:28:23;;;;;;;10.83;7.53;;;;;;;;;;5051484;28;20708;-78
2022/02/21 02:30:50;;;;;;;8.37;7.27;;;;;;;;;;5051810;28;20686;-77
2022/02/21 02:33:17;;;;;;;9.20;7.10;;;;;;;;;;5051725;28;20247;-78
2022/02/21 02:35:44;;;;;;;8.57;6.40;;;;;;;;;;5051773;28;20284;-78
2022/02/21 02:38:11;;;;;;;7.80;6.23;;;;;;;;;;5051651;28;20244;-78
2022/02/21 02:40:40;;;;;;;8.90;6.47;;;;;;;;;;5051611;28;20198;-78
2022/02/21 02:43:08;;;;;;;7.93;6.23;;;;;;;;;;5051576;28;20217;-78
2022/02/21 02:45:36;;;;;;;10.93;5.93;;;;;;;;;;5051503;28;20190;-78
2022/02/21 02:48:03;;;;;;;7.77;5.77;;;;;;;;;;5051700;28;20193;-78
2022/02/21 02:50:31;;;;;;;7.30;5.20;;;;;;;;;;5051600;28;20208;-78
2022/02/21 02:52:58;;;;;;;8.70;6.20;;;;;;;;;;5051627;28;20765;-78
2022/02/21 02:55:25;;;;;;;7.53;5.57;;;;;;;;;;5051519;28;20201;-78
2022/02/21 02:57:54;;;;;;;9.57;5.67;;;;;;;;;;5051377;28;20228;-78
2022/02/21 03:00:21;;;;;;;9.33;6.00;;;;;;;;;;5051689;28;20229;-78
2022/02/21 03:02:48;;;;;;;9.13;5.40;;;;;;;;;;5051491;28;20625;-77
2022/02/21 03:05:15;;;;;;;6.70;5.63;;;;;;;;;;5051039;28;20689;-78
2022/02/21 03:07:43;;;;;;;9.73;5.83;;;;;;;;;;5051696;28;20659;-78
2022/02/21 03:10:10;;;;;;;7.23;5.40;;;;;;;;;;5051255;28;20202;-78
2022/02/21 03:12:37;;;;;;;6.00;5.37;;;;;;;;;;5051477;28;20209;-77
2022/02/21 03:15:08;;;;;;;7.07;5.63;;;;;;;;;;5051181;28;20218;-78
2022/02/21 03:17:35;;;;;;;6.50;5.40;;;;;;;;;;5051630;28;20625;-78
2022/02/21 03:20:02;;;;;;;7.17;5.07;;;;;;;;;;5051246;28;20251;-77
2022/02/21 03:22:29;;;;;;;7.77;6.30;;;;;;;;;;5052996;28;20193;-77
2022/02/21 03:24:58;;;;;;;9.83;8.13;;;;;;;;;;5055073;28;20198;-77
2022/02/21 03:27:25;;;;;;;8.93;7.83;;;;;;;;;;5055706;28;20280;-77
2022/02/21 03:29:52;;;;;;;9.00;5.77;;;;;;;;;;5054801;28;20677;-78
2022/02/21 03:32:21;;;;;;;6.87;6.20;;;;;;;;;;5055129;28;20256;-78
2022/02/21 03:34:49;;;;;;;9.03;6.10;;;;;;;;;;5054542;28;20284;-78
2022/02/21 03:37:16;;;;;;;9.27;5.77;;;;;;;;;;5054612;28;20228;-77
2022/02/21 03:39:44;;;;;;;8.17;5.80;;;;;;;;;;5055012;28;20240;-77
2022/02/21 03:42:11;;;;;;;6.80;6.20;;;;;;;;;;5054790;28;20631;-77
2022/02/21 03:44:41;;;;;;;6.57;5.50;;;;;;;;;;5054103;28;20237;-77
2022/02/21 03:47:09;;;;;;;8.63;5.80;;;;;;;;;;5054978;28;20198;-77
2022/02/21 03:49:37;;;;;;;8.23;6.03;;;;;;;;;;5054356;28;20293;-78
2022/02/21 03:52:05;;;;;;;8.10;5.77;;;;;;;;;;5054510;28;20229;-78
2022/02/21 03:54:33;;;;;;;11.70;6.37;;;;;;;;;;5054093;28;20237;-78
2022/02/21 03:57:00;;;;;;;6.90;5.77;;;;;;;;;;5054203;28;20721;-78
2022/02/21 03:59:27;;;;;;;7.27;5.77;;;;;;;;;;5054359;28;20244;-78
2022/02/21 04:01:54;;;;;;;7.20;6.07;;;;;;;;;;5054549;28;20229;-78
2022/02/21 04:04:21;;;;;;;7.97;6.73;;;;;;;;;;5054176;28;20245;-78
2022/02/21 04:06:50;;;;;;;20.57;17.60;;;;;;;;;;5054195;28;20194;-78
2022/02/21 04:09:18;;;;;;;17.77;13.67;;;;;;;;;;5053910;28;20198;-78
2022/02/21 04:11:45;;;;;;;12.93;9.83;;;;;;;;;;5054126;28;20208;-78
2022/02/21 04:14:12;;;;;;;9.33;8.00;;;;;;;;;;5054099;28;20634;-78
2022/02/21 04:16:39;;;;;;;11.87;8.90;;;;;;;;;;5054005;28;20313;-78
2022/02/21 04:19:06;;;;;;;11.20;7.07;;;;;;;;;;5053839;28;20288;-79
2022/02/21 04:21:36;;;;;;;11.83;7.40;;;;;;;;;;5052544;28;20761;-78
2022/02/21 04:24:05;;;;;;;11.33;7.17;;;;;;;;;;5051823;28;20214;-78
2022/02/21 04:26:32;;;;;;;10.23;7.30;;;;;;;;;;5052389;28;20206;-78
2022/02/21 04:29:00;;;;;;;8.53;7.03;;;;;;;;;;5052804;28;20285;-78
2022/02/21 04:31:27;;;;;;;9.03;7.47;;;;;;;;;;5052993;28;20201;-78
2022/02/21 04:33:54;;;;;;;11.27;7.10;;;;;;;;;;5050891;28;20205;-79
2022/02/21 04:36:22;;;;;;;7.07;6.37;;;;;;;;;;5052932;28;20698;-78
2022/02/21 04:38:49;;;;;;;9.63;7.00;;;;;;;;;;5052069;28;20224;-78
2022/02/21 04:41:18;;;;;;;7.97;6.23;;;;;;;;;;5052602;28;20190;-77
2022/02/21 04:43:45;;;;;;;7.63;6.73;;;;;;;;;;5052146;28;20276;-78
2022/02/21 04:46:12;;;;;;;80.13;59.67;;;;;;;;;;5052338;28;20198;-78
2022/02/21 04:48:39;;;;;;;29.80;23.47;;;;;;;;;;5052340;28;20237;-77
2022/02/21 04:51:07;;;;;;;18.33;15.07;;;;;;;;;;5052810;28;20247;-78
2022/02/21 04:53:34;;;;;;;8.03;6.77;;;;;;;;;;5052640;28;20579;-78
2022/02/21 04:56:01;;;;;;;8.77;6.43;;;;;;;;;;5049728;28;21057;-79
2022/02/21 04:58:30;;;;;;;7.67;5.83;;;;;;;;;;5051699;28;20227;-79
2022/02/21 05:00:57;;;;;;;8.20;6.07;;;;;;;;;;5052401;28;20612;-80
2022/02/21 05:03:24;;;;;;;8.40;5.53;;;;;;;;;;5051653;28;20698;-79
2022/02/21 05:05:51;;;;;;;28.40;19.87;;;;;;;;;;5052152;28;20205;-79
2022/02/21 05:08:19;;;;;;;10.80;9.03;;;;;;;;;;5051130;28;20204;-79
2022/02/21 05:10:46;;;;;;;6.60;5.83;;;;;;;;;;5051590;28;20291;-79
2022/02/21 05:13:13;;;;;;;10.70;9.57;;;;;;;;;;5051746;28;20252;-78
2022/02/21 05:15:42;;;;;;;6.43;5.80;;;;;;;;;;5052004;28;20910;-79
2022/02/21 05:18:09;;;;;;;7.40;5.50;;;;;;;;;;5051426;28;20261;-79
2022/02/21 05:20:36;;;;;;;7.33;5.73;;;;;;;;;;5051542;28;20280;-78
2022/02/21 05:23:04;;;;;;;7.83;6.03;;;;;;;;;;5052018;28;20198;-79
2022/02/21 05:25:31;;;;;;;6.13;5.53;;;;;;;;;;5053131;28;20280;-79
2022/02/21 05:27:58;;;;;;;6.17;5.57;;;;;;;;;;5052626;28;20284;-79
2022/02/21 05:30:25;;;;;;;6.07;5.43;;;;;;;;;;5051959;28;20765;-78
2022/02/21 05:32:54;;;;;;;10.33;6.87;;;;;;;;;;5052994;28;20292;-78
2022/02/21 05:35:21;;;;;;;7.73;5.97;;;;;;;;;;5052288;28;20248;-78
2022/02/21 05:37:48;;;;;;;11.67;7.83;;;;;;;;;;5052149;28;20292;-79
2022/02/21 05:40:16;;;;;;;7.57;6.30;;;;;;;;;;5052608;28;20221;-79
2022/02/21 05:42:43;;;;;;;8.00;6.23;;;;;;;;;;5052488;28;20616;-78
2022/02/21 05:45:10;;;;;;;18.60;14.30;;;;;;;;;;5051807;28;20265;-78
2022/02/21 05:47:38;;;;;;;22.77;18.20;;;;;;;;;;5052594;28;20232;-79
2022/02/21 05:50:08;;;;;;;15.77;13.07;;;;;;;;;;5051969;28;20289;-78
2022/02/21 05:52:35;;;;;;;27.90;14.57;;;;;;;;;;5052440;28;20618;-78
2022/02/21 05:55:02;;;;;;;16.67;12.87;;;;;;;;;;5052084;28;20212;-78
2022/02/21 05:57:30;;;;;;;14.80;12.37;;;;;;;;;;5052055;28;20317;-78
2022/02/21 05:59:59;;;;;;;11.37;9.07;;;;;;;;;;5051998;28;20198;-78
2022/02/21 06:02:26;;;;;;;12.10;9.00;;;;;;;;;;5052257;28;20204;-78
2022/02/21 06:04:54;;;;;;;10.93;8.80;;;;;;;;;;5052185;28;20212;-78
2022/02/21 06:07:22;;;;;;;12.37;8.97;;;;;;;;;;5052349;28;20659;-78
2022/02/21 06:09:49;;;;;;;46.20;27.87;;;;;;;;;;5052026;28;20201;-79
2022/02/21 06:12:17;;;;;;;33.43;20.50;;;;;;;;;;5051977;28;20237;-78
2022/02/21 06:14:44;;;;;;;30.33;19.40;;;;;;;;;;5051884;28;20289;-79
2022/02/21 06:17:11;;;;;;;18.93;12.43;;;;;;;;;;5052166;28;20720;-78
2022/02/21 06:19:38;;;;;;;11.03;8.53;;;;;;;;;;5051794;28;20245;-78
2022/02/21 06:22:06;;;;;;;10.03;8.30;;;;;;;;;;5051975;28;20761;-78
2022/02/21 06:24:34;;;;;;;17.10;12.47;;;;;;;;;;5052059;28;20727;-79
2022/02/21 06:27:04;;;;;;;17.67;13.77;;;;;;;;;;5052169;28;20198;-78
2022/02/21 06:29:31;;;;;;;15.70;11.77;;;;;;;;;;5051575;28;20243;-78
2022/02/21 06:31:58;;;;;;;21.30;14.87;;;;;;;;;;5052115;28;20205;-78
2022/02/21 06:34:25;;;;;;;24.00;16.47;;;;;;;;;;5051813;28;20248;-78
2022/02/21 06:36:53;;;;;;;21.90;15.23;;;;;;;;;;5051639;28;20293;-78
2022/02/21 06:39:20;;;;;;;17.40;15.03;;;;;;;;;;5051735;28;20197;-79
2022/02/21 06:41:50;;;;;;;17.70;13.37;;;;;;;;;;5051862;28;20263;-79
2022/02/21 06:44:17;;;;;;;16.37;12.90;;;;;;;;;;5051378;28;20651;-78
2022/02/21 06:46:45;;;;;;;17.70;11.50;;;;;;;;;;5051664;28;20675;-79
2022/02/21 06:49:12;;;;;;;17.07;13.47;;;;;;;;;;5051790;28;20209;-78
2022/02/21 06:51:40;;;;;;;13.70;11.70;;;;;;;;;;5051731;28;20202;-79
2022/02/21 06:54:07;;;;;;;15.20;9.33;;;;;;;;;;5051665;28;20232;-78
2022/02/21 06:56:35;;;;;;;11.83;9.47;;;;;;;;;;5051821;28;20241;-79
2022/02/21 06:59:04;;;;;;;11.73;9.03;;;;;;;;;;5055070;28;20222;-79
2022/02/21 07:01:31;;;;;;;14.43;10.17;;;;;;;;;;5055478;28;20252;-79
2022/02/21 07:03:59;;;;;;;18.47;12.10;;;;;;;;;;5055781;28;20300;-79
2022/02/21 07:06:26;;;;;;;11.40;8.50;;;;;;;;;;5055577;28;20216;-79
2022/02/21 07:08:53;;;;;;;23.30;16.73;;;;;;;;;;5055029;28;20197;-79
2022/02/21 07:11:20;;;;;;;10.83;8.30;;;;;;;;;;5055495;28;20288;-78
2022/02/21 07:13:47;;;;;;;8.47;7.53;;;;;;;;;;5055167;28;20201;-78
2022/02/21 07:16:16;;;;;;;17.70;12.03;;;;;;;;;;5055492;28;20202;-79
2022/02/21 07:18:43;;;;;;;10.07;8.43;;;;;;;;;;5054994;28;20319;-78
2022/02/21 07:21:10;;;;;;;11.23;7.80;;;;;;;;;;5055198;28;20201;-78
2022/02/21 07:23:38;;;;;;;20.60;18.20;;;;;;;;;;5053242;28;20781;-79
2022/02/21 07:26:05;;;;;;;10.17;9.13;;;;;;;;;;5053864;28;20667;-79
2022/02/21 07:28:33;;;;;;;11.70;9.20;;;;;;;;;;5054861;28;20289;-79
2022/02/21 07:31:00;;;;;;;9.47;8.47;;;;;;;;;;5054962;28;20251;-79
2022/02/21 07:33:29;;;;;;;14.90;12.57;;;;;;;;;;5054728;28;20202;-79
2022/02/21 07:35:56;;;;;;;10.37;8.20;;;;;;;;;;5054945;28;20244;-79
2022/02/21 07:38:24;;;;;;;8.53;7.47;;;;;;;;;;5054721;28;20279;-79
2022/02/21 07:40:51;;;;;;;9.63;7.23;;;;;;;;;;5054727;28;20717;-79
2022/02/21 07:43:18;;;;;;;8.87;6.97;;;;;;;;;;5054530;28;20205;-79
2022/02/21 07:45:46;;;;;;;10.87;7.07;;;;;;;;;;5054692;28;20228;-79
2022/02/21 07:48:13;;;;;;;8.80;7.80;;;;;;;;;;5054639;28;20699;-80
2022/02/21 07:50:41;;;;;;;6.20;5.57;;;;;;;;;;5054873;28;20204;-79
2022/02/21 07:53:09;;;;;;;7.93;6.33;;;;;;;;;;5054409;28;20198;-79
2022/02/21 07:55:36;;;;;;;20.50;14.10;;;;;;;;;;5054659;28;20562;-78
2022/02/21 07:58:04;;;;;;;31.43;19.00;;;;;;;;;;5054395;28;20229;-79
2022/02/21 08:00:31;;;;;;;59.67;34.43;;;;;;;;;;5054252;28;20205;-79
2022/02/21 08:02:58;;;;;;;38.80;24.93;;;;;;;;;;5054383;28;20552;-79
2022/02/21 08:05:25;;;;;;;14.17;9.47;;;;;;;;;;5054156;28;20206;-79
2022/02/21 08:07:54;;;;;;;16.37;11.67;;;;;;;;;;5054042;28;20249;-79
2022/02/21 08:10:21;;;;;;;27.87;18.77;;;;;;;;;;5054002;28;20603;-79
2022/02/21 08:12:48;;;;;;;14.13;9.47;;;;;;;;;;5053980;28;20288;-79
2022/02/21 08:15:16;;;;;;;34.50;21.57;;;;;;;;;;5053974;28;20236;-79
2022/02/21 08:17:44;;;;;;;26.27;17.40;;;;;;;;;;5053979;28;20308;-79
2022/02/21 08:20:12;;;;;;;27.70;19.33;;;;;;;;;;5053852;28;20197;-79
2022/02/21 08:22:40;;;;;;;19.47;11.97;;;;;;;;;;5053911;28;20588;-79
2022/02/21 08:25:10;;;;;;;48.67;29.97;;;;;;;;;;5053526;28;20625;-79
2022/02/21 08:27:38;;;;;;;12.67;9.87;;;;;;;;;;5054040;28;20776;-80
2022/02/21 08:30:07;;;;;;;58.53;34.80;;;;;;;;;;5053708;28;20220;-80
2022/02/21 08:32:34;;;;;;;44.33;28.63;;;;;;;;;;5053715;28;20201;-80
2022/02/21 08:35:01;;;;;;;20.53;15.93;;;;;;;;;;5054003;28;20202;-80
2022/02/21 08:37:28;;;;;;;11.93;10.23;;;;;;;;;;5053609;28;20293;-79
2022/02/21 08:39:55;;;;;;;13.30;8.23;;;;;;;;;;5053444;28;20227;-79
2022/02/21 08:42:24;;;;;;;10.43;7.43;;;;;;;;;;5053557;28;20709;-80
2022/02/21 08:44:51;;;;;;;15.40;7.97;;;;;;;;;;5053467;28;20722;-80
2022/02/21 08:47:21;;;;;;;10.07;7.60;;;;;;;;;;5053924;28;20618;-80
2022/02/21 08:49:48;;;;;;;10.10;7.70;;;;;;;;;;5053278;28;20201;-79
2022/02/21 08:52:16;;;;;;;12.73;8.03;;;;;;;;;;5053385;28;20642;-79
2022/02/21 08:54:43;;;;;;;10.57;7.37;;;;;;;;;;5053287;28;20198;-79
2022/02/21 08:57:10;;;;;;;10.27;7.90;;;;;;;;;;5053422;28;20198;-79
2022/02/21 08:59:39;;;;;;;12.73;7.10;;;;;;;;;;5053126;28;20279;-79
2022/02/21 09:02:07;;;;;;;12.37;9.73;;;;;;;;;;5053616;28;20563;-80
2022/02/21 09:04:34;;;;;;;10.07;7.50;;;;;;;;;;5053059;28;20710;-79
2022/02/21 09:07:01;;;;;;;12.63;9.60;;;;;;;;;;5053183;28;20245;-79
2022/02/21 09:09:28;;;;;;;9.73;8.03;;;;;;;;;;5052961;28;20557;-79
2022/02/21 09:11:56;;;;;;;12.20;7.83;;;;;;;;;;5052917;28;20202;-80
2022/02/21 09:14:23;;;;;;;12.43;8.73;;;;;;;;;;5052871;28;20674;-80
2022/02/21 09:16:51;;;;;;;11.77;8.07;;;;;;;;;;5053000;28;20280;-79
2022/02/21 09:19:19;;;;;;;12.97;9.00;;;;;;;;;;5052253;28;20722;-79
2022/02/21 09:21:46;;;;;;;11.67;8.23;;;;;;;;;;5052675;28;20288;-79
2022/02/21 09:24:13;;;;;;;11.00;8.07;;;;;;;;;;5052750;28;20564;-80
2022/02/21 09:26:40;;;;;;;13.37;8.67;;;;;;;;;;5052900;28;20670;-80
2022/02/21 09:29:08;;;;;;;10.93;8.93;;;;;;;;;;5052384;28;20233;-79
2022/02/21 09:31:35;;;;;;;16.00;10.83;;;;;;;;;;5052955;28;20225;-79
2022/02/21 09:34:03;;;;;;;13.37;8.50;;;;;;;;;;5052515;28;20198;-79
2022/02/21 09:36:31;;;;;;;13.83;10.83;;;;;;;;;;5052748;28;20204;-79
2022/02/21 09:38:59;;;;;;;72.80;45.67;;;;;;;;;;5052475;28;20221;-79
2022/02/21 09:41:26;;;;;;;26.90;15.93;;;;;;;;;;5052888;28;20687;-80
2022/02/21 09:43:53;;;;;;;128.73;65.07;;;;;;;;;;5052294;28;20242;-80
2022/02/21 09:46:29;;;;;;;148.17;71.87;;;;;;;;;;5052588;28;20193;-80
2022/02/21 09:48:58;;;;;;;79.73;41.33;;;;;;;;;;5052428;28;20265;-79
2022/02/21 09:51:27;;;;;;;24.97;11.93;;;;;;;;;;5052457;28;20608;-80
2022/02/21 09:53:54;;;;;;;10.10;7.53;;;;;;;;;;5052566;28;20567;-79
2022/02/21 09:56:21;;;;;;;28.30;16.23;;;;;;;;;;5052549;28;20640;-80
2022/02/21 09:58:54;;;;;;;68.73;38.63;;;;;;;;;;5052381;28;20608;-80
2022/02/21 10:01:23;;;;;;;30.13;18.63;;;;;;;;;;5052490;28;20197;-80
2022/02/21 10:03:54;;;;;;;56.67;36.87;;;;;;;;;;5051980;28;20199;-80
2022/02/21 10:06:24;;;;;;;32.27;25.97;;;;;;;;;;5052328;28;20543;-79
2022/02/21 10:08:55;;;;;;;16.10;13.37;;;;;;;;;;5052103;28;20200;-80
2022/02/21 10:11:23;;;;;;;14.30;10.47;;;;;;;;;;5052313;28;20196;-79
2022/02/21 10:13:54;;;;;;;15.37;13.50;;;;;;;;;;5051829;28;20726;-80
2022/02/21 10:16:22;;;;;;;12.87;9.73;;;;;;;;;;5052144;28;20200;-80
2022/02/21 10:18:49;;;;;;;19.73;14.80;;;;;;;;;;5052082;28;20260;-79
2022/02/21 10:21:16;;;;;;;56.43;34.53;;;;;;;;;;5052335;28;20622;-79
2022/02/21 10:23:44;;;;;;;10.77;8.37;;;;;;;;;;5052059;28;20229;-80
2022/02/21 10:26:13;;;;;;;19.83;15.43;;;;;;;;;;5052339;28;20201;-79
2022/02/21 10:28:44;;;;;;;21.67;17.03;;;;;;;;;;5051730;28;20197;-80
2022/02/21 10:31:12;;;;;;;23.63;18.83;;;;;;;;;;5053234;28;20659;-80
2022/02/21 10:33:40;;;;;;;11.63;8.57;;;;;;;;;;5056255;28;20207;-80
2022/02/21 10:36:28;;;;;;;30.00;23.10;;;;;;;;;;5055996;28;20201;-80
2022/02/21 10:38:55;;;;;;;19.43;16.33;;;;;;;;;;5056237;28;20231;-79
2022/02/21 10:41:47;;;;;;;16.80;11.97;;;;;;;;;;5055598;28;20288;-81
2022/02/21 10:44:23;;;;;;;18.87;12.97;;;;;;;;;;5055711;28;20239;-80
2022/02/21 10:47:05;;;;;;;10.00;8.70;;;;;;;;;;5055928;28;20207;-81
2022/02/21 10:49:33;;;;;;;10.30;7.43;;;;;;;;;;5055882;28;20639;-80
2022/02/21 10:52:00;;;;;;;11.67;7.43;;;;;;;;;;5055566;28;20579;-80
2022/02/21 10:54:33;;;;;;;15.00;9.83;;;;;;;;;;5055450;28;20289;-80
2022/02/21 10:57:01;;;;;;;17.47;9.27;;;;;;;;;;5055822;28;20216;-80
2022/02/21 10:59:30;;;;;;;10.73;9.37;;;;;;;;;;5055326;28;20312;-80
2022/02/21 11:02:00;;;;;;;8.50;7.37;;;;;;;;;;5055246;28;20292;-80
2022/02/21 11:04:28;;;;;;;10.73;7.90;;;;;;;;;;5055289;28;20628;-80
2022/02/21 11:06:56;;;;;;;8.10;7.30;;;;;;;;;;5055555;28;20197;-81
2022/02/21 11:09:26;;;;;;;44.07;30.67;;;;;;;;;;5055501;28;20198;-81
2022/02/21 11:11:55;;;;;;;10.23;8.50;;;;;;;;;;5055087;28;20229;-81
2022/02/21 11:14:26;;;;;;;21.53;13.37;;;;;;;;;;5055103;28;20202;-81
2022/02/21 11:16:55;;;;;;;21.30;17.93;;;;;;;;;;5055458;28;20187;-80
2022/02/21 11:19:23;;;;;;;27.33;16.47;;;;;;;;;;5055006;28;20316;-81
2022/02/21 11:21:50;;;;;;;24.73;17.77;;;;;;;;;;5055529;28;20268;-81
2022/02/21 11:24:19;;;;;;;20.50;17.57;;;;;;;;;;5055001;28;20696;-79
2022/02/21 11:26:55;;;;;;;12.50;9.67;;;;;;;;;;5055382;28;20637;-79
2022/02/21 11:29:29;;;;;;;11.30;9.93;;;;;;;;;;5054963;28;20183;-80
2022/02/21 11:31:56;;;;;;;10.80;9.60;;;;;;;;;;5054703;28;20186;-80
2022/02/21 11:34:23;;;;;;;9.60;7.83;;;;;;;;;;5054767;28;20688;-80
2022/02/21 11:36:57;;;;;;;11.33;10.07;;;;;;;;;;5055337;28;20199;-80
2022/02/21 11:39:28;;;;;;;10.83;9.80;;;;;;;;;;5054907;28;20593;-80
2022/02/21 11:42:06;;;;;;;11.40;9.13;;;;;;;;;;5054832;28;20186;-80
2022/02/21 11:44:49;;;;;;;10.87;8.37;;;;;;;;;;5054067;28;20236;-80
2022/02/21 11:47:39;;;;;;;11.73;7.67;;;;;;;;;;5055324;28;20190;-80
2022/02/21 11:50:08;;;;;;;12.03;7.70;;;;;;;;;;5054540;28;20618;-80
2022/02/21 11:52:37;;;;;;;13.10;9.30;;;;;;;;;;5054814;28;20690;-80
2022/02/21 11:55:35;;;;;;;17.60;11.73;;;;;;;;;;5054478;28;20199;-80
2022/02/21 11:58:36;;;;;;;15.57;8.33;;;;;;;;;;5054750;28;20201;-81
2022/02/21 12:01:20;;;;;;;10.93;7.50;;;;;;;;;;5054638;28;20179;-80
2022/02/21 12:04:16;;;;;;;8.90;7.90;;;;;;;;;;5054461;28;20190;-80
2022/02/21 12:06:57;;;;;;;15.90;8.57;;;;;;;;;;5054815;28;20202;-81
2022/02/21 12:09:25;;;;;;;10.33;7.47;;;;;;;;;;5054235;28;20198;-80
2022/02/21 12:11:52;;;;;;;12.47;8.57;;;;;;;;;;5054572;28;20670;-80
2022/02/21 12:14:23;;;;;;;8.63;7.73;;;;;;;;;;5053747;28;20694;-80
2022/02/21 12:17:09;;;;;;;12.10;8.07;;;;;;;;;;5054487;28;20218;-79
2022/02/21 12:19:41;;;;;;;9.07;7.33;;;;;;;;;;5053150;28;20312;-80
2022/02/21 12:22:18;;;;;;;9.63;8.70;;;;;;;;;;5054156;28;20189;-80
2022/02/21 12:25:21;;;;;;;7.87;7.10;;;;;;;;;;5054179;28;20194;-80
2022/02/21 12:28:10;;;;;;;11.40;6.67;;;;;;;;;;5052866;28;20231;-80
2022/02/21 12:30:39;;;;;;;18.80;15.13;;;;;;;;;;5053942;28;20194;-81
2022/02/21 12:33:08;;;;;;;9.33;8.47;;;;;;;;;;5054219;28;20647;-80
2022/02/21 12:35:46;;;;;;;12.23;10.57;;;;;;;;;;5053856;28;20198;-81
2022/02/21 12:38:14;;;;;;;12.97;9.70;;;;;;;;;;5054200;28;20331;-80
2022/02/21 12:40:54;;;;;;;14.37;9.77;;;;;;;;;;5053764;28;20321;-81
2022/02/21 12:43:22;;;;;;;15.83;14.17;;;;;;;;;;5053835;28;20186;-80
2022/02/21 12:45:49;;;;;;;27.33;19.37;;;;;;;;;;5054263;28;20261;-80
2022/02/21 12:48:18;;;;;;;25.20;17.83;;;;;;;;;;5053672;28;20292;-80
2022/02/21 12:50:45;;;;;;;17.07;14.73;;;;;;;;;;5053783;28;20633;-80
2022/02/21 12:53:12;;;;;;;15.80;11.47;;;;;;;;;;5054071;28;20292;-80
2022/02/21 12:55:48;;;;;;;14.50;13.00;;;;;;;;;;5052561;28;20681;-80
2022/02/21 12:58:15;;;;;;;14.53;12.70;;;;;;;;;;5054057;28;20221;-81
2022/02/21 13:00:43;;;;;;;11.50;9.93;;;;;;;;;;5053415;28;20285;-80
2022/02/21 13:03:23;;;;;;;13.60;9.30;;;;;;;;;;5053396;28;20198;-81
2022/02/21 13:06:00;;;;;;;9.83;7.97;;;;;;;;;;5053484;28;20186;-80
2022/02/21 13:08:38;;;;;;;8.33;6.70;;;;;;;;;;5052878;28;20277;-80
2022/02/21 13:11:05;;;;;;;42.40;27.07;;;;;;;;;;5053230;28;20204;-80
2022/02/21 13:13:33;;;;;;;8.33;6.60;;;;;;;;;;5052776;28;20240;-81
2022/02/21 13:16:05;;;;;;;7.07;6.00;;;;;;;;;;5051954;28;20197;-80
2022/02/21 13:18:53;;;;;;;8.00;6.47;;;;;;;;;;5052933;28;20599;-80
2022/02/21 13:21:38;;;;;;;7.97;6.73;;;;;;;;;;5052709;28;20305;-80
2022/02/21 13:24:08;;;;;;;7.80;5.90;;;;;;;;;;5052608;28;20186;-80
2022/02/21 13:26:49;;;;;;;10.67;7.07;;;;;;;;;;5052781;28;20237;-80
2022/02/21 13:29:27;;;;;;;10.27;7.30;;;;;;;;;;5052734;28;20730;-80
2022/02/21 13:31:55;;;;;;;21.43;18.43;;;;;;;;;;5052617;28;20225;-80
2022/02/21 13:34:41;;;;;;;13.53;10.80;;;;;;;;;;5052612;28;20280;-80
2022/02/21 13:37:10;;;;;;;8.40;7.33;;;;;;;;;;5052472;28;20286;-80
2022/02/21 13:39:40;;;;;;;7.33;6.63;;;;;;;;;;5052052;28;20219;-80
2022/02/21 13:42:16;;;;;;;8.63;6.70;;;;;;;;;;5052380;28;20296;-80
2022/02/21 13:44:44;;;;;;;7.90;7.10;;;;;;;;;;5052256;28;20624;-80
2022/02/21 13:47:27;;;;;;;8.00;7.20;;;;;;;;;;5052329;28;20196;-80
2022/02/21 13:49:56;;;;;;;9.97;7.23;;;;;;;;;;5051947;28;20251;-80
2022/02/21 13:52:23;;;;;;;13.07;7.87;;;;;;;;;;5052177;28;20287;-80
2022/02/21 13:54:51;;;;;;;9.37;8.47;;;;;;;;;;5052026;28;20667;-80
2022/02/21 13:57:19;;;;;;;11.57;8.10;;;;;;;;;;5052668;28;20205;-80
2022/02/21 13:59:48;;;;;;;8.67;7.17;;;;;;;;;;5051636;28;20264;-80
2022/02/21 14:02:26;;;;;;;12.90;6.93;;;;;;;;;;5052251;28;20289;-80
2022/02/21 14:05:06;;;;;;;12.53;8.50;;;;;;;;;;5051958;28;20213;-80
2022/02/21 14:07:34;;;;;;;10.10;7.53;;;;;;;;;;5051693;28;20232;-81
2022/02/21 14:10:08;;;;;;;10.73;8.37;;;;;;;;;;5052215;28;20280;-81
2022/02/21 14:12:35;;;;;;;12.07;9.73;;;;;;;;;;5052098;28;20287;-81
2022/02/21 14:15:03;;;;;;;11.43;8.67;;;;;;;;;;5051615;28;20201;-81
2022/02/21 14:17:31;;;;;;;10.03;8.40;;;;;;;;;;5052203;28;20201;-81
2022/02/21 14:19:58;;;;;;;9.47;7.37;;;;;;;;;;5051760;28;20314;-81
2022/02/21 14:22:31;;;;;;;11.90;8.63;;;;;;;;;;5052215;28;20204;-81
2022/02/21 14:24:58;;;;;;;10.73;7.73;;;;;;;;;;5051786;28;20229;-81
2022/02/21 14:27:27;;;;;;;31.50;8.80;;;;;;;;;;5051927;28;20197;-81
2022/02/21 14:29:55;;;;;;;16.87;9.47;;;;;;;;;;5051868;28;20686;-81
2022/02/21 14:32:22;;;;;;;12.27;9.63;;;;;;;;;;5052083;28;20198;-81
2022/02/21 14:34:50;;;;;;;31.70;22.43;;;;;;;;;;5051604;28;20232;-81
2022/02/21 14:37:17;;;;;;;31.97;21.53;;;;;;;;;;5051503;28;20233;-81
2022/02/21 14:39:46;;;;;;;57.40;36.77;;;;;;;;;;5051709;28;20202;-80
2022/02/21 14:42:13;;;;;;;67.47;40.90;;;;;;;;;;5052010;28;20194;-81